El Paso Intl Information

FAA: ELP - ICAO: KELP

El Paso Intl (Airport) Location

State Texas
County El Paso
City El Paso
El Paso Intl (Airport) is 4 miles northeast of El Paso, TX.
Latitude 31-48-26.4000N
Longitude 106-22-34.9000W
Elevation 3,961ft

El Paso Intl METARs

METAR KELP 251651Z 23009G18KT 10SM FEW250 11/M04 A3002 RMK AO2 SLP138 T01111044 $
Altimeter 30.02"
Temperature 11.1°C (52.0°F)
Wind 230° at 9KT with gusts to 18KT
Clouds few at 25,000ft
Visibility 10.0mi
Time observed: 2022-01-25T16:51:00Z

El Paso Intl (Airport) Details

Status Operational
Activation November 1938
Ownership Public
Usage Public
Chart EL PASO
ATC on-site Yes
Beacon schedule sunset-sunrise
Beacon color clear green

El Paso Intl (Airport) Contacts

Owner CITY OF EL PASO
Owner address 300 N. CAMPBELL, EL PASO, TX 79901
Owner phone (915) 212-0000
Manager RICK MCCLURE
Manager address 303 MAGNOLIA, VICTORIA, TX 77901
Manager phone 361-652-4163

El Paso Intl Radio Frequencies

El Paso Intl (Airport) Radio Frequencies

UNICOM 122.95
Common traffic advisory frequency (CTAF) N/A